KMPV/MPV METAR and TAF weather

Enter ICAO airport designator
Station Type Date Time Source
KMPV METAR 2021/03/04 20:51 UTC NOAA

KMPV 042051Z AUTO 33013G24KT 10SM SCT041 M06/M14 A2972 RMK AO2 PK WND 32026/2034 SLP084 T10611144 56009


Station Type Date Time Source
KMPV Decoded METAR 2021/03/04 20:51 UTC NOAA

KNAPP STATE AIRPORT, VT, United States (KMPV) 44-12N 072-34W 343M
Mar 04, 2021 - 03:51 PM EST / 2021.03.04 2051 UTC
Wind: from the NNW (330 degrees) at 15 MPH (13 KT) gusting to 28 MPH (24 KT):0
Visibility: 10 mile(s):0
Sky conditions: partly cloudy
Temperature: 21.0 F (-6.1 C)
Windchill: 6 F (-14 C):1
Dew Point: 6.1 F (-14.4 C)
Relative Humidity: 51%
Pressure (altimeter): 29.72 in. Hg (1006 hPa)
Pressure tendency: 0.03 inches (0.9 hPa) lower than three hours ago
ob: KMPV 042051Z AUTO 33013G24KT 10SM SCT041 M06/M14 A2972 RMK AO2 PK WND 32026/2034 SLP084 T10611144 56009
cycle: 21

Station Type Date Time Source
KMPV TAF 2021/03/04 18:36 UTC NOAA

TAF KMPV 041735Z 0418/0518 30015G25KT P6SM FEW060
FM042300 31013G22KT P6SM VCSH OVC028
FM050500 31013G22KT 4SM -SN BR OVC025
FM051000 31012G19KT P6SM BKN050

Example: see airport list